Time;durP1;ratioP1;P1;durP2;ratioP2;P2;SDS_P1;SDS_P2;PMS_P1;PMS_P2;Temp;Humidity;BMP_temperature;BMP_pressure;BME280_temperature;BME280_humidity;BME280_pressure;Samples;Min_cycle;Max_cycle;Signal;HPM_P1;HPM_P2
2022/03/16 00:00:19;;;;;;;190.38;39.75;;;;;;;8.05;60.36;102261.56;4713548;29;121505;-86
2022/03/16 00:02:47;;;;;;;119.18;37.28;;;;;;;7.65;60.73;102209.72;4728033;29;122832;-86
2022/03/16 00:05:19;;;;;;;140.63;38.17;;;;;;;7.93;60.63;102260.00;4729317;29;119836;-86
2022/03/16 00:07:45;;;;;;;144.85;40.33;;;;;;;8.18;61.24;102296.25;4745390;29;119426;-85
2022/03/16 00:10:13;;;;;;;132.45;39.17;;;;;;;8.17;60.54;102305.63;4712096;29;123227;-85
2022/03/16 00:12:50;;;;;;;115.50;41.75;;;;;;;7.60;60.48;102231.19;4716925;29;119738;-85
2022/03/16 00:15:16;;;;;;;150.38;67.60;;;;;;;7.83;60.20;102277.97;4724946;29;122793;-85
2022/03/16 00:17:44;;;;;;;195.55;69.28;;;;;;;7.77;60.23;102284.22;4712799;29;119507;-85
2022/03/16 00:20:12;;;;;;;129.15;61.72;;;;;;;7.36;60.59;102221.84;4700921;29;122382;-86
2022/03/16 00:22:38;;;;;;;97.63;50.70;;;;;;;7.89;60.93;102309.19;4744134;29;120897;-87
2022/03/16 00:25:07;;;;;;;70.40;37.45;;;;;;;7.79;60.25;102292.78;4714003;29;119416;-86
2022/03/16 00:27:33;;;;;;;94.07;36.28;;;;;;;7.91;60.20;102312.31;4740538;29;120359;-86
2022/03/16 00:30:04;;;;;;;82.13;33.08;;;;;;;7.38;60.78;102233.91;4711603;29;123239;-86
2022/03/16 00:32:37;;;;;;;80.88;32.95;;;;;;;7.69;60.89;102286.19;4728458;29;121126;-86
2022/03/16 00:35:06;;;;;;;80.93;36.03;;;;;;;7.72;61.00;102298.28;4711073;29;121698;-86
2022/03/16 00:37:32;;;;;;;67.60;33.95;;;;;;;7.47;60.62;102262.78;4728958;29;120083;-85
2022/03/16 00:40:10;;;;;;;89.18;32.25;;;;;;;7.55;61.19;102276.03;4717515;29;122038;-86
2022/03/16 00:42:36;;;;;;;73.72;30.40;;;;;;;7.48;61.20;102261.59;4711199;29;122815;-85
2022/03/16 00:45:03;;;;;;;77.03;29.83;;;;;;;7.32;61.06;102246.38;4719857;29;120341;-85
2022/03/16 00:47:42;;;;;;;113.30;30.38;;;;;;;7.62;60.90;102299.84;4713270;29;122243;-86
2022/03/16 00:50:16;;;;;;;;;;;;;;;7.83;60.84;102338.09;4742590;29;120324;-85
2022/03/16 00:52:41;;;;;;;56.15;27.30;;;;;;;7.84;61.42;102344.34;4738520;29;122466;-85
2022/03/16 00:55:08;;;;;;;44.45;27.45;;;;;;;7.86;61.45;102342.75;4729724;29;119901;-85
2022/03/16 00:57:34;;;;;;;35.90;25.00;;;;;;;7.59;61.16;102303.34;4732606;29;122613;-85
2022/03/16 01:00:01;;;;;;;34.00;24.77;;;;;;;7.80;61.00;102333.38;4729505;29;119447;-85
2022/03/16 01:02:26;;;;;;;34.65;24.65;;;;;;;7.75;60.99;102335.72;4716965;29;122669;-85
2022/03/16 01:04:55;;;;;;;32.38;23.13;;;;;;;7.54;60.52;102298.25;4709938;29;122152;-85
2022/03/16 01:07:23;;;;;;;29.45;22.40;;;;;;;7.43;60.21;102292.03;4728777;29;121968;-86
2022/03/16 01:09:52;;;;;;;22.88;18.90;;;;;;;7.34;60.03;102278.78;4730337;29;122949;-85
2022/03/16 01:12:20;;;;;;;19.33;16.48;;;;;;;7.78;59.74;102341.19;4729598;29;119507;-85
2022/03/16 01:14:46;;;;;;;19.73;16.23;;;;;;;7.23;59.47;102262.38;4727538;29;119414;-86
2022/03/16 01:17:14;;;;;;;17.13;15.32;;;;;;;7.82;59.77;102363.84;4690419;29;122709;-85
2022/03/16 01:19:49;;;;;;;18.20;15.60;;;;;;;7.24;58.98;102280.31;4746612;29;119887;-86
2022/03/16 01:22:28;;;;;;;17.77;15.87;;;;;;;7.53;59.37;102329.47;4729714;29;120260;-85
2022/03/16 01:24:54;;;;;;;19.05;15.77;;;;;;;7.69;58.84;102352.50;4741629;29;119491;-86
2022/03/16 01:27:19;;;;;;;17.15;13.88;;;;;;;7.37;59.10;102310.75;4742896;29;119738;-85
2022/03/16 01:29:45;;;;;;;18.48;15.25;;;;;;;7.37;59.09;102316.22;4729133;29;120004;-85
2022/03/16 01:32:11;;;;;;;16.58;14.88;;;;;;;7.66;59.08;102360.72;4729445;29;119610;-85
2022/03/16 01:34:37;;;;;;;18.05;15.70;;;;;;;7.59;58.55;102357.97;4744305;29;123639;-85
2022/03/16 01:37:03;;;;;;;18.83;16.50;;;;;;;7.60;58.35;102359.53;4730164;29;119911;-85
2022/03/16 01:39:31;;;;;;;19.92;16.70;;;;;;;7.54;59.00;102352.88;4719252;29;119490;-86
2022/03/16 01:41:59;;;;;;;18.85;16.35;;;;;;;7.33;58.56;102326.31;4747310;29;122907;-85
2022/03/16 01:44:48;;;;;;;18.92;16.00;;;;;;;7.42;59.40;102347.81;4720013;29;119699;-85
2022/03/16 01:47:18;;;;;;;18.92;16.25;;;;;;;7.21;58.74;102324.75;4702586;29;122190;-86
2022/03/16 01:49:45;;;;;;;18.95;16.48;;;;;;;7.28;59.07;102341.13;4710123;29;123606;-86
2022/03/16 01:52:15;;;;;;;20.25;16.55;;;;;;;6.95;58.94;102297.78;4702570;29;119733;-86
2022/03/16 01:54:41;;;;;;;18.42;15.48;;;;;;;7.06;59.01;102313.00;4743958;29;119962;-86
2022/03/16 01:57:12;;;;;;;18.70;16.38;;;;;;;7.20;58.94;102345.03;4722029;29;123157;-86
2022/03/16 01:59:39;;;;;;;17.63;15.10;;;;;;;6.94;58.81;102304.41;4706814;29;119598;-86
2022/03/16 02:02:06;;;;;;;19.23;16.10;;;;;;;6.89;59.06;102302.84;4732084;29;122589;-85
2022/03/16 02:04:32;;;;;;;18.42;16.30;;;;;;;7.23;59.53;102348.94;4702543;29;119959;-85
2022/03/16 02:06:59;;;;;;;18.58;15.65;;;;;;;7.04;59.13;102317.28;4725646;29;120006;-85
2022/03/16 02:09:25;;;;;;;19.52;16.42;;;;;;;7.28;58.97;102356.72;4726379;29;123156;-86
2022/03/16 02:11:51;;;;;;;20.05;16.92;;;;;;;7.26;58.90;102357.13;4741699;29;120825;-85
2022/03/16 02:14:17;;;;;;;19.42;15.93;;;;;;;7.19;59.15;102348.94;4728711;29;122267;-86
2022/03/16 02:16:47;;;;;;;17.85;15.88;;;;;;;7.03;58.78;102321.19;4706689;29;122820;-86
2022/03/16 02:19:13;;;;;;;17.02;14.65;;;;;;;6.90;58.77;102311.81;4732138;29;119533;-86
2022/03/16 02:21:40;;;;;;;17.45;14.80;;;;;;;7.26;58.46;102359.84;4702687;29;122296;-86
2022/03/16 02:24:09;;;;;;;16.80;14.95;;;;;;;7.06;58.27;102331.34;4718972;29;123250;-86
2022/03/16 02:26:35;;;;;;;16.50;14.73;;;;;;;6.90;58.14;102309.09;4727712;29;122016;-86
2022/03/16 02:29:00;;;;;;;19.05;16.08;;;;;;;6.92;58.55;102321.19;4737830;29;120277;-86
2022/03/16 02:31:36;;;;;;;18.25;14.27;;;;;;;6.97;58.73;102330.94;4713817;29;119412;-86
2022/03/16 02:34:07;;;;;;;17.13;14.85;;;;;;;6.64;58.52;102285.63;4744463;29;123706;-86
2022/03/16 02:36:32;;;;;;;15.75;14.15;;;;;;;6.85;57.91;102326.59;4710705;29;122897;-86
2022/03/16 02:39:03;;;;;;;18.38;16.27;;;;;;;7.09;58.05;102360.56;4702368;29;119568;-86
2022/03/16 02:41:28;;;;;;;17.77;14.30;;;;;;;6.99;58.14;102355.88;4743792;29;119842;-86
2022/03/16 02:43:54;;;;;;;21.23;15.98;;;;;;;7.08;58.31;102378.13;4714888;29;122603;-85
2022/03/16 02:46:22;;;;;;;20.20;16.40;;;;;;;6.80;58.52;102331.63;4706006;29;119360;-86
2022/03/16 02:48:49;;;;;;;19.75;15.35;;;;;;;6.74;58.79;102329.28;4727845;29;123098;-85
2022/03/16 02:51:15;;;;;;;23.08;16.38;;;;;;;6.77;58.26;102327.72;4725782;29;119689;-86
2022/03/16 02:53:41;;;;;;;20.90;16.05;;;;;;;6.84;58.01;102340.59;4743779;29;119737;-86
2022/03/16 02:56:07;;;;;;;22.20;17.30;;;;;;;6.92;58.28;102361.31;4726031;29;121751;-85
2022/03/16 02:58:33;;;;;;;22.50;16.95;;;;;;;6.81;58.60;102357.75;4710832;29;119719;-86
2022/03/16 03:01:08;;;;;;;24.95;18.58;;;;;;;6.58;58.63;102336.22;4711245;29;122313;-86
2022/03/16 03:03:34;;;;;;;26.30;18.73;;;;;;;6.73;58.68;102356.94;4727401;29;123294;-86
2022/03/16 03:05:59;;;;;;;26.70;18.35;;;;;;;6.68;58.79;102358.09;4726456;29;119461;-86
2022/03/16 03:08:25;;;;;;;27.95;19.48;;;;;;;6.59;58.98;102354.13;4746737;29;119752;-85
2022/03/16 03:10:53;;;;;;;33.50;20.65;;;;;;;6.59;59.21;102360.38;4727820;29;119984;-85
2022/03/16 03:13:18;;;;;;;27.42;19.02;;;;;;;6.36;59.13;102321.69;4724761;29;121941;-87
2022/03/16 03:15:49;;;;;;;27.98;19.80;;;;;;;6.62;59.27;102353.38;4726709;29;123101;-86
2022/03/16 03:18:14;;;;;;;27.65;18.30;;;;;;;6.62;59.10;102354.16;4727746;29;119943;-85
2022/03/16 03:20:40;;;;;;;25.83;16.95;;;;;;;6.70;59.22;102366.69;4711337;29;121736;-85
2022/03/16 03:23:06;;;;;;;21.38;16.67;;;;;;;6.69;58.83;102362.38;4741897;29;123384;-85
2022/03/16 03:25:32;;;;;;;21.23;15.85;;;;;;;6.35;58.89;102311.94;4711310;29;120696;-85
2022/03/16 03:27:57;;;;;;;22.70;16.20;;;;;;;6.47;59.12;102336.94;4724013;29;120037;-85
2022/03/16 03:30:23;;;;;;;20.58;15.57;;;;;;;6.60;58.98;102361.16;4745077;29;120145;-85
2022/03/16 03:32:49;;;;;;;21.63;16.88;;;;;;;6.51;58.81;102358.78;4728162;29;122406;-85
2022/03/16 03:35:14;;;;;;;21.23;15.68;;;;;;;6.46;59.46;102356.41;4710632;29;122807;-87
2022/03/16 03:37:40;;;;;;;21.83;16.17;;;;;;;6.46;59.21;102370.06;4742949;29;119586;-87
2022/03/16 03:40:08;;;;;;;26.52;17.65;;;;;;;6.06;59.63;102308.28;4713404;29;122405;-85
2022/03/16 03:42:34;;;;;;;32.58;18.42;;;;;;;6.43;59.18;102373.53;4726585;29;122722;-85
2022/03/16 03:45:00;;;;;;;41.72;19.63;;;;;;;6.26;59.62;102361.34;4741643;29;119945;-86
2022/03/16 03:47:25;;;;;;;35.00;19.65;;;;;;;6.00;59.97;102332.38;4727803;29;122083;-86
2022/03/16 03:49:54;;;;;;;63.08;18.98;;;;;;;6.18;60.44;102354.31;4715662;29;122806;-85
2022/03/16 03:52:20;;;;;;;39.75;17.98;;;;;;;6.34;60.83;102375.81;4730926;29;119615;-87
2022/03/16 03:54:48;;;;;;;37.58;17.85;;;;;;;6.47;60.56;102386.03;4727009;29;123432;-86
2022/03/16 03:57:21;;;;;;;51.63;18.33;;;;;;;6.51;60.60;102379.81;4725388;29;119983;-85
2022/03/16 03:59:46;;;;;;;37.07;16.67;;;;;;;6.12;60.61;102309.47;4723557;29;122073;-86
2022/03/16 04:02:15;;;;;;;24.13;16.20;;;;;;;6.53;60.58;102359.19;4741955;29;122835;-85
2022/03/16 04:04:41;;;;;;;22.85;14.65;;;;;;;6.41;60.32;102343.16;4715884;29;119778;-87
2022/03/16 04:07:07;;;;;;;43.97;14.70;;;;;;;6.37;59.96;102329.47;4713332;29;121645;-85
2022/03/16 04:09:33;;;;;;;18.27;13.73;;;;;;;6.81;60.13;102398.66;4730404;29;123313;-86
2022/03/16 04:12:01;;;;;;;25.05;13.52;;;;;;;6.68;59.91;102366.28;4749338;29;120676;-85
2022/03/16 04:14:29;;;;;;;22.45;12.93;;;;;;;6.81;59.61;102393.22;4703563;29;123213;-85
2022/03/16 04:16:54;;;;;;;23.05;13.50;;;;;;;6.42;59.82;102331.88;4718516;29;119544;-86
2022/03/16 04:19:20;;;;;;;24.27;13.27;;;;;;;6.81;59.61;102387.75;4733580;29;119631;-86
2022/03/16 04:21:46;;;;;;;24.90;13.68;;;;;;;6.88;59.32;102398.72;4745139;29;120198;-85
2022/03/16 04:24:12;;;;;;;19.02;13.27;;;;;;;6.52;59.00;102349.44;4746323;29;120261;-84
2022/03/16 04:26:40;;;;;;;23.50;13.32;;;;;;;6.90;59.52;102402.63;4714478;29;121824;-86
2022/03/16 04:29:05;;;;;;;26.17;11.80;;;;;;;6.78;58.20;102384.63;4707483;29;123250;-85
2022/03/16 04:31:31;;;;;;;21.38;10.43;;;;;;;6.58;58.24;102377.91;4710910;29;119593;-85
2022/03/16 04:33:57;;;;;;;18.63;10.43;;;;;;;6.34;58.47;102360.22;4749001;29;120156;-85
2022/03/16 04:36:23;;;;;;;32.45;10.90;;;;;;;6.48;58.19;102386.81;4729580;29;119768;-85
2022/03/16 04:38:55;;;;;;;14.40;11.55;;;;;;;6.41;58.75;102392.22;4729478;29;122145;-86
2022/03/16 04:41:23;;;;;;;20.42;10.55;;;;;;;6.50;59.01;102408.22;4744872;29;120269;-86
2022/03/16 04:43:49;;;;;;;22.90;10.20;;;;;;;6.37;58.65;102392.19;4701999;29;119724;-85
2022/03/16 04:46:14;;;;;;;17.83;11.70;;;;;;;6.12;58.84;102367.47;4726906;29;122676;-86
2022/03/16 04:48:42;;;;;;;12.82;11.38;;;;;;;6.30;59.03;102404.97;4726066;29;119971;-86
2022/03/16 04:51:08;;;;;;;21.27;11.50;;;;;;;6.09;59.58;102381.06;4710047;29;119943;-86
2022/03/16 04:53:35;;;;;;;24.73;11.55;;;;;;;6.22;59.39;102397.91;4730081;29;122005;-86
2022/03/16 04:56:06;;;;;;;14.77;10.95;;;;;;;5.76;59.13;102320.09;4733427;29;120281;-85
2022/03/16 04:58:33;;;;;;;27.45;11.15;;;;;;;6.13;59.57;102365.53;4729534;29;121857;-85
2022/03/16 05:00:58;;;;;;;14.55;11.65;;;;;;;6.29;59.25;102392.50;4728968;29;119888;-87
2022/03/16 05:03:24;;;;;;;14.68;11.40;;;;;;;5.98;59.60;102342.88;4745062;29;119615;-86
2022/03/16 05:05:52;;;;;;;13.73;10.80;;;;;;;6.35;59.41;102405.41;4729515;29;119654;-87
2022/03/16 05:08:38;;;;;;;;;;;;;;;;;;;;;
2022/03/16 05:11:12;;;;;;;17.07;10.77;;;;;;;5.82;59.18;102310.41;4740323;29;121288;-87
2022/03/16 05:13:40;;;;;;;13.43;11.82;;;;;;;6.33;59.66;102391.38;4703252;29;121743;-86
2022/03/16 05:16:07;;;;;;;16.75;11.30;;;;;;;6.04;59.56;102346.78;4736899;29;119742;-86
2022/03/16 05:18:38;;;;;;;14.35;11.50;;;;;;;5.93;59.60;102332.34;4747949;29;119924;-86
2022/03/16 05:21:13;;;;;;;;;;;;;;;;;;;;;
2022/03/16 05:23:40;;;;;;;16.08;12.38;;;;;;;6.19;59.76;102369.50;4720081;29;119661;-86
2022/03/16 05:26:17;;;;;;;;;;;;;;;;;;;;;
2022/03/16 05:28:56;;;;;;;19.38;12.05;;;;;;;6.28;59.58;102386.28;4743621;29;120016;-86
2022/03/16 05:31:22;;;;;;;17.63;12.95;;;;;;;6.27;59.90;102381.22;4728987;29;120110;-87
2022/03/16 05:33:51;;;;;;;18.02;13.15;;;;;;;6.17;60.25;102365.59;4729335;29;119652;-86
2022/03/16 05:36:17;;;;;;;22.10;14.00;;;;;;;6.44;60.28;102407.81;4714814;29;124119;-86
2022/03/16 05:38:45;;;;;;;24.23;14.55;;;;;;;6.37;60.31;102396.84;4743239;29;120444;-86
2022/03/16 05:41:14;;;;;;;16.13;14.43;;;;;;;6.40;60.35;102382.47;4718422;29;121601;-86
2022/03/16 05:43:41;;;;;;;36.30;14.73;;;;;;;6.62;60.42;102422.31;4714555;29;119864;-86
2022/03/16 05:46:27;;;;;;;;;;;;;;;6.82;59.81;102444.66;4731895;29;119710;-86
2022/03/16 05:48:52;;;;;;;26.88;14.50;;;;;;;6.26;60.21;102360.56;4714378;29;122818;-86
2022/03/16 05:51:18;;;;;;;23.08;14.98;;;;;;;6.56;60.37;102387.63;4744043;29;119519;-86
2022/03/16 05:53:44;;;;;;;31.73;15.82;;;;;;;6.92;60.39;102451.34;4714660;29;120023;-86
2022/03/16 05:56:14;;;;;;;24.73;15.50;;;;;;;6.58;60.28;102396.97;4727202;29;123509;-85
2022/03/16 05:58:42;;;;;;;26.88;16.15;;;;;;;6.65;61.04;102393.53;4715106;29;119662;-86
2022/03/16 06:01:11;;;;;;;26.55;16.13;;;;;;;6.58;60.74;102386.06;4718185;29;121564;-86
2022/03/16 06:03:49;;;;;;;;;;;;;;;;;;;;;
2022/03/16 06:06:20;;;;;;;19.55;15.98;;;;;;;6.85;60.22;102411.16;4717893;29;122203;-86
2022/03/16 06:08:48;;;;;;;22.70;17.10;;;;;;;6.89;60.69;102419.38;4728684;29;122806;-85
2022/03/16 06:11:14;;;;;;;23.98;15.60;;;;;;;7.03;60.43;102427.59;4728997;29;119715;-86
2022/03/16 06:13:43;;;;;;;24.27;15.13;;;;;;;6.78;60.60;102387.34;4737798;29;119771;-86
2022/03/16 06:16:12;;;;;;;20.52;16.27;;;;;;;7.27;60.65;102470.59;4742424;29;120716;-85
2022/03/16 06:18:41;;;;;;;20.48;15.90;;;;;;;7.15;60.71;102438.19;4714592;29;119444;-85
2022/03/16 06:21:07;;;;;;;25.35;15.77;;;;;;;7.32;60.50;102461.25;4698913;29;121765;-85
2022/03/16 06:23:34;;;;;;;25.08;16.33;;;;;;;6.96;60.39;102394.84;4744707;29;119985;-85
2022/03/16 06:26:01;;;;;;;19.88;17.08;;;;;;;7.50;60.89;102483.16;4723729;29;121753;-85
2022/03/16 06:28:26;;;;;;;25.08;16.73;;;;;;;7.47;61.21;102468.34;4709086;29;122663;-85
2022/03/16 06:30:52;;;;;;;25.00;16.50;;;;;;;7.62;60.91;102480.88;4707436;29;120088;-85
2022/03/16 06:33:18;;;;;;;22.33;16.73;;;;;;;7.62;60.79;102491.03;4705481;29;121844;-85
2022/03/16 06:35:44;;;;;;;22.02;17.48;;;;;;;7.74;60.96;102501.59;4727729;29;120436;-85
2022/03/16 06:38:12;;;;;;;27.58;17.02;;;;;;;7.48;60.77;102452.75;4714075;29;119488;-85
2022/03/16 06:40:43;;;;;;;23.42;18.88;;;;;;;7.83;60.75;102501.22;4744116;29;122160;-85
2022/03/16 06:43:13;;;;;;;28.30;19.45;;;;;;;7.49;60.77;102441.44;4727897;29;120014;-85
2022/03/16 06:45:39;;;;;;;28.33;18.98;;;;;;;7.66;60.38;102459.03;4738490;29;119528;-85
2022/03/16 06:48:05;;;;;;;30.98;19.38;;;;;;;7.98;60.95;102506.31;4727846;29;120308;-85
2022/03/16 06:50:31;;;;;;;33.70;19.55;;;;;;;7.88;60.22;102490.69;4728222;29;119625;-85
2022/03/16 06:52:58;;;;;;;34.00;20.95;;;;;;;7.98;60.60;102498.13;4743942;29;119554;-85
2022/03/16 06:55:26;;;;;;;56.42;26.63;;;;;;;7.80;60.43;102467.25;4739662;29;119987;-84
2022/03/16 06:57:55;;;;;;;60.30;28.92;;;;;;;7.78;60.91;102442.28;4715938;29;119688;-85
2022/03/16 07:00:33;;;;;;;55.72;26.92;;;;;;;7.78;60.53;102441.47;4728966;29;120241;-85
2022/03/16 07:03:01;;;;;;;55.15;26.95;;;;;;;8.31;60.60;102516.16;4742137;29;120182;-85
2022/03/16 07:05:35;;;;;;;51.38;25.85;;;;;;;8.32;60.47;102509.50;4728265;29;120446;-85
2022/03/16 07:08:05;;;;;;;44.67;23.88;;;;;;;8.44;60.69;102519.28;4743698;29;119428;-85
2022/03/16 07:10:42;;;;;;;45.53;25.17;;;;;;;8.50;60.37;102534.13;4725942;29;119559;-84
2022/03/16 07:13:16;;;;;;;44.88;25.50;;;;;;;7.97;60.06;102447.38;4711678;29;122311;-85
2022/03/16 07:15:46;;;;;;;46.33;25.67;;;;;;;8.04;60.50;102451.28;4707417;29;123187;-85
2022/03/16 07:18:26;;;;;;;50.60;27.23;;;;;;;8.41;60.27;102498.19;4709434;29;119758;-84
2022/03/16 07:20:52;;;;;;;56.83;26.60;;;;;;;8.30;60.41;102476.31;4697345;29;122089;-85
2022/03/16 07:23:18;;;;;;;43.78;25.90;;;;;;;8.78;61.17;102540.78;4724186;29;120090;-84
2022/03/16 07:25:47;;;;;;;48.83;25.00;;;;;;;8.85;60.30;102551.72;4726833;29;119764;-85
2022/03/16 07:28:14;;;;;;;36.70;23.52;;;;;;;8.61;60.74;102496.63;4722694;29;121695;-85
2022/03/16 07:30:52;;;;;;;35.65;23.08;;;;;;;8.92;60.47;102538.00;4729658;29;120030;-84
2022/03/16 07:33:26;;;;;;;30.02;20.67;;;;;;;8.44;60.39;102450.91;4710801;29;121937;-84
2022/03/16 07:35:55;;;;;;;23.58;19.02;;;;;;;8.78;60.49;102502.47;4721671;29;122542;-85
2022/03/16 07:38:21;;;;;;;21.38;18.15;;;;;;;9.11;60.40;102532.13;4708837;29;119665;-84
2022/03/16 07:40:52;;;;;;;22.38;17.40;;;;;;;9.21;60.57;102542.25;4725679;29;122442;-84
2022/03/16 07:43:29;;;;;;;22.35;16.48;;;;;;;8.89;60.49;102490.31;4724391;29;122996;-85
2022/03/16 07:45:56;;;;;;;17.52;15.43;;;;;;;9.23;60.72;102541.88;4728308;29;119809;-84
2022/03/16 07:48:27;;;;;;;20.60;16.17;;;;;;;9.08;60.44;102508.28;4727991;29;121725;-84
2022/03/16 07:50:53;;;;;;;18.67;15.85;;;;;;;9.21;60.46;102514.88;4714857;29;123279;-84
2022/03/16 07:53:26;;;;;;;14.85;12.00;;;;;;;8.97;60.36;102471.91;4717471;29;119747;-84
2022/03/16 07:56:05;;;;;;;21.90;16.00;;;;;;;9.00;60.49;102457.47;4724766;29;122755;-84
2022/03/16 07:58:33;;;;;;;21.33;15.70;;;;;;;9.46;60.53;102516.72;4710998;29;120233;-84
2022/03/16 08:01:23;;;;;;;34.53;22.63;;;;;;;9.51;60.09;102513.59;4739934;29;120503;-85
2022/03/16 08:03:51;;;;;;;37.38;22.50;;;;;;;9.34;59.96;102484.31;4744447;29;120043;-84
2022/03/16 08:06:24;;;;;;;26.52;19.35;;;;;;;9.33;59.65;102475.31;4723221;29;120459;-84
2022/03/16 08:08:55;;;;;;;29.60;18.30;;;;;;;9.51;60.06;102503.44;4727106;29;122110;-84
2022/03/16 08:11:23;;;;;;;23.58;17.88;;;;;;;9.50;60.29;102501.09;4728779;29;123785;-84
2022/03/16 08:13:51;;;;;;;21.80;17.70;;;;;;;9.56;60.70;102515.91;4720123;29;120474;-84
2022/03/16 08:16:26;;;;;;;22.92;17.75;;;;;;;9.66;60.83;102517.03;4730751;29;120411;-84
2022/03/16 08:19:01;;;;;;;21.70;17.38;;;;;;;9.72;60.61;102518.97;4712191;29;119720;-84
2022/03/16 08:21:30;;;;;;;24.75;18.98;;;;;;;9.75;60.84;102511.91;4722975;29;121592;-84
2022/03/16 08:23:58;;;;;;;22.90;19.13;;;;;;;9.74;61.24;102513.88;4728961;29;122634;-84
2022/03/16 08:26:26;;;;;;;22.15;18.67;;;;;;;9.71;61.10;102490.03;4724914;29;120686;-84
2022/03/16 08:29:20;;;;;;;24.23;18.83;;;;;;;9.76;60.60;102489.59;4719594;29;119884;-84
2022/03/16 08:31:58;;;;;;;22.47;18.00;;;;;;;9.99;60.83;102508.25;4712114;29;122509;-84
2022/03/16 08:34:29;;;;;;;25.00;20.97;;;;;;;10.17;60.74;102521.81;4726108;29;121501;-84
2022/03/16 08:36:58;;;;;;;24.10;18.88;;;;;;;10.43;60.66;102556.94;4732904;29;119713;-84
2022/03/16 08:39:27;;;;;;;27.00;20.30;;;;;;;10.03;60.35;102486.28;4711445;29;119855;-83
2022/03/16 08:41:53;;;;;;;24.63;19.20;;;;;;;10.58;60.39;102563.09;4724549;29;121680;-84
2022/03/16 08:44:24;;;;;;;24.13;20.77;;;;;;;10.68;60.78;102566.94;4726209;29;122712;-84
2022/03/16 08:46:51;;;;;;;26.13;21.20;;;;;;;10.22;60.59;102479.53;4713271;29;119771;-84
2022/03/16 08:49:37;;;;;;;25.55;20.23;;;;;;;10.36;60.49;102493.88;4728357;29;120869;-84
2022/03/16 08:52:07;;;;;;;31.05;22.30;;;;;;;10.58;60.39;102518.41;4696461;29;123623;-84
2022/03/16 08:54:34;;;;;;;26.13;20.98;;;;;;;10.63;60.47;102521.47;4713992;29;119782;-84
2022/03/16 08:57:02;;;;;;;26.23;21.10;;;;;;;10.57;59.92;102508.59;4727319;29;120389;-84
2022/03/16 08:59:50;;;;;;;23.73;19.67;;;;;;;10.80;60.14;102522.50;4740425;29;121086;-84
2022/03/16 09:02:16;;;;;;;27.67;21.13;;;;;;;10.74;60.35;102497.47;4743348;29;120251;-84
2022/03/16 09:04:41;;;;;;;25.42;20.63;;;;;;;10.77;59.86;102490.38;4722358;29;123258;-84
2022/03/16 09:07:10;;;;;;;26.40;21.38;;;;;;;11.08;59.81;102532.41;4726211;29;119757;-84
2022/03/16 09:09:42;;;;;;;25.60;20.70;;;;;;;10.87;59.35;102486.75;4744883;29;119428;-84
2022/03/16 09:12:11;;;;;;;26.02;21.42;;;;;;;11.10;59.64;102518.28;4728053;29;120574;-84
2022/03/16 09:14:45;;;;;;;27.17;21.55;;;;;;;11.02;59.76;102501.09;4742022;29;120668;-84
2022/03/16 09:17:20;;;;;;;27.80;21.70;;;;;;;11.27;59.47;102544.78;4742693;29;122360;-84
2022/03/16 09:19:50;;;;;;;25.13;21.03;;;;;;;11.06;59.11;102510.88;4740466;29;122999;-83
2022/03/16 09:22:29;;;;;;;28.45;21.83;;;;;;;11.36;59.30;102542.34;4744070;29;119898;-84
2022/03/16 09:25:06;;;;;;;25.83;20.38;;;;;;;11.15;59.29;102506.88;4713851;29;122667;-83
2022/03/16 09:27:35;;;;;;;25.65;21.80;;;;;;;11.48;59.27;102560.25;4726145;29;121919;-84
2022/03/16 09:30:24;;;;;;;;;;;;;;;;;;;;;
2022/03/16 09:33:07;;;;;;;;;;;;;;;;;;;;;
2022/03/16 09:35:56;;;;;;;28.17;22.98;;;;;;;11.37;59.32;102536.44;4740280;29;119985;-83
2022/03/16 09:38:25;;;;;;;32.65;23.95;;;;;;;11.49;58.65;102564.56;4727144;29;122252;-83
2022/03/16 09:40:57;;;;;;;32.92;25.35;;;;;;;11.28;59.03;102519.63;4706708;29;123002;-83
2022/03/16 09:43:33;;;;;;;29.85;23.05;;;;;;;11.36;58.96;102534.88;4722718;29;120157;-83
2022/03/16 09:46:17;;;;;;;29.38;22.58;;;;;;;11.54;58.49;102559.38;4729782;29;123478;-84
2022/03/16 09:48:45;;;;;;;26.05;21.05;;;;;;;11.46;58.51;102554.38;4726937;29;119876;-84
2022/03/16 09:51:34;;;;;;;41.88;27.48;;;;;;;11.62;58.55;102573.81;4712589;29;121775;-84
2022/03/16 09:54:11;;;;;;;25.25;20.60;;;;;;;11.89;58.65;102621.44;4726548;29;123046;-84
2022/03/16 09:56:44;;;;;;;29.27;22.10;;;;;;;11.57;58.60;102577.78;4695937;29;120022;-84
2022/03/16 09:59:14;;;;;;;26.95;21.73;;;;;;;11.80;58.45;102592.84;4726264;29;122989;-84
2022/03/16 10:01:56;;;;;;;28.80;21.25;;;;;;;11.64;59.07;102572.22;4726888;29;122727;-84
2022/03/16 10:04:36;;;;;;;30.38;22.50;;;;;;;11.63;58.76;102570.66;4726023;29;121310;-84
2022/03/16 10:07:07;;;;;;;33.30;24.27;;;;;;;11.56;58.15;102554.25;4739628;29;121150;-84
2022/03/16 10:15:13;;;;;;;28.08;21.42;;;;;;;12.03;58.16;102636.19;4725634;29;123376;-84
2022/03/16 10:17:46;;;;;;;32.08;22.25;;;;;;;11.94;58.07;102617.44;4724993;29;120883;-84
2022/03/16 10:20:28;;;;;;;26.95;20.60;;;;;;;11.98;57.88;102624.44;4741146;29;122190;-84
2022/03/16 10:22:58;;;;;;;30.48;22.70;;;;;;;12.01;57.90;102627.56;4724567;29;123224;-84
2022/03/16 10:25:26;;;;;;;28.90;21.90;;;;;;;11.97;58.05;102633.13;4742260;29;119799;-84
2022/03/16 10:27:53;;;;;;;29.58;21.15;;;;;;;11.81;58.44;102614.44;4694783;29;121850;-84
2022/03/16 10:30:30;;;;;;;24.80;19.63;;;;;;;11.88;57.94;102614.38;4715381;29;123188;-84
2022/03/16 10:32:56;;;;;;;25.98;20.58;;;;;;;11.97;58.02;102619.38;4725836;29;122053;-84
2022/03/16 10:35:34;;;;;;;29.67;20.98;;;;;;;12.18;58.00;102654.84;4714411;29;122559;-84
2022/03/16 10:38:09;;;;;;;27.15;20.38;;;;;;;12.15;57.64;102652.91;4713058;29;119756;-83
2022/03/16 10:40:47;;;;;;;25.60;20.08;;;;;;;11.77;57.52;102596.41;4729017;29;121763;-83
2022/03/16 10:49:12;;;;;;;26.23;19.42;;;;;;;12.22;56.97;102605.25;4743305;29;122001;-83
2022/03/16 10:51:46;;;;;;;25.65;20.63;;;;;;;12.38;56.45;102610.94;4742811;29;120122;-83
2022/03/16 10:54:20;;;;;;;26.13;20.60;;;;;;;12.08;56.07;102555.97;4703136;29;119953;-84
2022/03/16 10:56:47;;;;;;;33.60;22.55;;;;;;;12.63;56.28;102629.06;4737239;29;120144;-84
2022/03/16 10:59:16;;;;;;;29.85;19.48;;;;;;;12.70;56.42;102628.94;4737940;29;120217;-83
2022/03/16 11:01:46;;;;;;;21.95;17.17;;;;;;;12.42;56.23;102575.88;4723850;29;119787;-83
2022/03/16 11:04:26;;;;;;;28.63;20.23;;;;;;;12.53;55.56;102579.22;4735374;29;122914;-83
2022/03/16 11:07:03;;;;;;;22.48;16.50;;;;;;;12.85;54.69;102633.78;4725546;29;119551;-83
2022/03/16 11:09:36;;;;;;;30.33;18.60;;;;;;;12.45;54.91;102577.78;4727866;29;120015;-84
2022/03/16 11:14:53;;;;;;;30.23;19.95;;;;;;;12.59;55.00;102601.56;4725899;29;120183;-84
2022/03/16 11:17:22;;;;;;;36.22;19.45;;;;;;;12.57;55.01;102588.22;4741727;29;122967;-84
2022/03/16 11:19:56;;;;;;;29.55;18.05;;;;;;;12.49;54.99;102580.47;4725285;29;120624;-84
2022/03/16 11:22:33;;;;;;;35.80;18.33;;;;;;;12.09;55.26;102527.25;4734502;29;124921;-84
2022/03/16 11:25:09;;;;;;;;;;;;;;;;;;;;;
2022/03/16 11:27:50;;;;;;;25.67;16.80;;;;;;;12.62;54.73;102600.75;4715542;29;120500;-85
2022/03/16 11:30:35;;;;;;;25.45;16.35;;;;;;;12.52;55.19;102607.16;4724748;29;121359;-84
2022/03/16 11:33:06;;;;;;;22.23;15.85;;;;;;;12.47;55.14;102602.16;4724242;29;123663;-83
2022/03/16 11:35:44;;;;;;;19.30;15.60;;;;;;;12.35;55.11;102583.47;4711060;29;119999;-83
2022/03/16 11:38:15;;;;;;;20.60;14.48;;;;;;;12.08;55.08;102539.47;4724678;29;121292;-84
2022/03/16 11:40:51;;;;;;;24.88;15.05;;;;;;;12.39;55.53;102598.72;4729189;29;121055;-83
2022/03/16 11:43:25;;;;;;;18.58;14.00;;;;;;;12.15;55.11;102564.88;4728168;29;120675;-83